Αναφορές METAR Αεροδρομίων

 

LGTS - THESSALONIKI - GREECE
Ενημερώθηκε: 16/10/2018 09:20
Αραιές Νεφώσεις
Αραιές Νεφώσεις
 Ανεμος από calm
Ανεμος: Απνοια
Θερμοκρασία: 17°C
Σημ. Δρόσου: 11°C
Υγρασία: 68%
Βαρόμετρο: 1022 hPa
Clouds: Αραιές Νεφώσεις
Visibility: 10 km
Cloud details: Αραιές Νεφώσεις 762 m
2018/10/16 06:20 LGTS 160620Z 00000KT 9999 FEW025 17/11 Q1022 NOSIG
LGLR - LARTISA - GREECE
Ενημερώθηκε: 16/10/2018 08:50
Σχεδόν νεφελώδης
Σχεδόν νεφελώδης
 Ανεμος από calm
Ανεμος: Απνοια
Θερμοκρασία: 15°C
Σημ. Δρόσου: 11°C
Υγρασία: 77%
Βαρόμετρο: 1022 hPa
Clouds: Σχεδόν νεφελώδης
Visibility: 10 km
Cloud details: Αραιές Νεφώσεις 914 m
Σχεδόν νεφελώδης 2438 m
2018/10/16 05:50 LGLR 160550Z 00000KT 9999 FEW030 BKN080 15/11 Q1022 BLU
 
LGKZ - KOZANI - GREECE
Ενημερώθηκε: 16/10/2018 08:50
Αραιές Νεφώσεις
Αραιές Νεφώσεις
 Ανεμος από calm
Ανεμος: Απνοια
Θερμοκρασία: 11°C
Σημ. Δρόσου: 9°C
Υγρασία: 88%
Βαρόμετρο: 1024 hPa
Clouds: Αραιές Νεφώσεις
Visibility: 10 km
Cloud details: Αραιές Νεφώσεις 2134 m
2018/10/16 05:50 LGKZ 160550Z 00000KT 9999 FEW070 11/09 Q1024
LGKV - KAVALA - GREECE
Ενημερώθηκε: 16/10/2018 09:20
Αίθριος
Αίθριος
 Ανεμος από calm
Ανεμος: Απνοια
Θερμοκρασία: 13°C
Σημ. Δρόσου: 10°C
Υγρασία: 82%
Βαρόμετρο: 1022 hPa
Περίληψη: Αίθριος
Visibility: greater than 10 km
2018/10/16 06:20 LGKV 160620Z 00000KT CAVOK 13/10 Q1022
 
LGIO - IOANNINA - GREECE
Ενημερώθηκε: 16/10/2018 09:20
Αραιές Νεφώσεις
Αραιές Νεφώσεις
 Ανεμος από varies
Ανεμος: varies 0 km/h
Θερμοκρασία: 11°C
Σημ. Δρόσου: 8°C
Υγρασία: 82%
Βαρόμετρο: 1021 hPa
Clouds: Αραιές Νεφώσεις
Visibility: 10 km
Cloud details: Αραιές Νεφώσεις 914 m
2018/10/16 06:20 LGIO 160620Z /////KT 9999 FEW030 11/08 Q1021
LGBL - BOLOS - GREECE
Ενημερώθηκε: 16/10/2018 09:20
Σχεδόν νεφελώδης
Σχεδόν νεφελώδης
 Ανεμος από ΔΒΔ
Ανεμος: ΔΒΔ 9 km/h
Θερμοκρασία: 17°C
Σημ. Δρόσου: 12°C
Υγρασία: 73%
Βαρόμετρο: 1022 hPa
Clouds: Σχεδόν νεφελώδης
Visibility: 10 km
Cloud details: Μερικώς νεφελώδης 914 m
Σχεδόν νεφελώδης 2438 m
2018/10/16 06:20 LGBL 160620Z 30005KT 9999 SCT030 BKN080 17/12 Q1022
 
LGMT - MITILINI - GREECE
Ενημερώθηκε: 16/10/2018 09:20
Αίθριος
Αίθριος
 Ανεμος από ΒΔ
Ανεμος: ΒΔ 15 km/h
Θερμοκρασία: 20°C
Σημ. Δρόσου: 16°C
Υγρασία: 78%
Βαρόμετρο: 1020 hPa
Περίληψη: Αίθριος
Visibility: greater than 10 km
2018/10/16 06:20 LGMT 160620Z 32008KT CAVOK 20/16 Q1020
LGAV - ATHENS - GREECE
Ενημερώθηκε: 16/10/2018 09:20
Αραιές Νεφώσεις
Αραιές Νεφώσεις
 Ανεμος από Β
Ανεμος: Β 17 km/h
Θερμοκρασία: 19°C
Σημ. Δρόσου: 13°C
Υγρασία: 68%
Βαρόμετρο: 1021 hPa
Clouds: Αραιές Νεφώσεις
Visibility: 10 km
Cloud details: Αραιές Νεφώσεις 914 m
2018/10/16 06:20 LGAV 160620Z 36009KT 9999 FEW030 19/13 Q1021 NOSIG
 
LGRP - RODOS - GREECE
Ενημερώθηκε: 16/10/2018 09:20
Μερικώς νεφελώδης
Μερικώς νεφελώδης
 Ανεμος από Δ
Ανεμος: Δ 15 km/h
Θερμοκρασία: 22°C
Σημ. Δρόσου: 18°C
Υγρασία: 78%
Βαρόμετρο: 1015 hPa
Clouds: Μερικώς νεφελώδης
Visibility: 10 km
Cloud details: Μερικώς νεφελώδης 366 m
2018/10/16 06:20 LGRP 160620Z 27008KT 9999 SCT012 22/18 Q1015 NOSIG
LGIR - HRAKLIO/KRITI - GREECE
Ενημερώθηκε: 16/10/2018 09:20
Σχεδόν νεφελώδης
Σχεδόν νεφελώδης
 Ανεμος από Δ
Ανεμος: Δ 17 km/h
Θερμοκρασία: 20°C
Σημ. Δρόσου: 18°C
Υγρασία: 88%
Βαρόμετρο: 1019 hPa
Clouds: Σχεδόν νεφελώδης
Visibility: 10 km
Cloud details: Αραιές Νεφώσεις 549 m
Σχεδόν νεφελώδης 762 m
2018/10/16 06:20 LGIR 160620Z 28009KT 9999 FEW018 BKN025 20/18 Q1019 NOSIG
 
LGMK - MIKONOS - GREECE
Ενημερώθηκε: 16/10/2018 09:20
Μερικώς νεφελώδης
Μερικώς νεφελώδης
 Ανεμος από Β
Ανεμος: Β 35 km/h
Θερμοκρασία: 19°C
Σημ. Δρόσου: 17°C
Υγρασία: 88%
Βαρόμετρο: 1018 hPa
Clouds: Μερικώς νεφελώδης
Visibility: 9 km
Cloud details: Μερικώς νεφελώδης 305 m
2018/10/16 06:20 LGMK 160620Z 35019KT 9000 SCT010 19/17 Q1018
LGKR - KERKIRA - GREECE
Ενημερώθηκε: 16/10/2018 09:20
Αραιές Νεφώσεις
Αραιές Νεφώσεις
 Ανεμος από calm
Ανεμος: Απνοια
Θερμοκρασία: 15°C
Σημ. Δρόσου: 14°C
Υγρασία: 94%
Βαρόμετρο: 1019 hPa
Clouds: Αραιές Νεφώσεις
Visibility: 10 km
Cloud details: Αραιές Νεφώσεις 762 m
2018/10/16 06:20 LGKR 160620Z 00000KT 9999 FEW025 15/14 Q1019 NOSIG